Time;durP1;ratioP1;P1;durP2;ratioP2;P2;SDS_P1;SDS_P2;PMS_P1;PMS_P2;Temp;Humidity;BMP_temperature;BMP_pressure;BME280_temperature;BME280_humidity;BME280_pressure;Samples;Min_cycle;Max_cycle;Signal;HPM_P1;HPM_P2
2021/06/12 00:00:17;;;;;;;14.20;8.53;;;;;;;15.60;82.14;100391.91;1849147;76;20897;-77
2021/06/12 00:02:44;;;;;;;12.55;7.25;;;;;;;15.60;82.08;100394.55;1849476;77;20890;-77
2021/06/12 00:05:11;;;;;;;14.95;7.85;;;;;;;15.60;81.86;100393.72;1849239;77;20948;-77
2021/06/12 00:07:39;;;;;;;8.68;6.85;;;;;;;15.58;81.76;100395.66;1849228;77;21120;-78
2021/06/12 00:10:18;;;;;;;14.00;8.53;;;;;;;15.54;81.77;100391.12;1836377;77;21365;-77
2021/06/12 00:12:48;;;;;;;14.30;9.60;;;;;;;15.54;81.77;100391.12;1834809;78;20871;-78
2021/06/12 00:15:20;;;;;;;13.90;8.95;;;;;;;15.48;82.47;100397.75;1834763;76;20844;-77
2021/06/12 00:17:47;;;;;;;15.43;8.03;;;;;;;15.48;82.47;100397.75;1835237;77;21321;-77
2021/06/12 00:20:19;;;;;;;14.47;7.55;;;;;;;15.44;82.52;100394.19;1834640;77;21126;-76
2021/06/12 00:22:46;;;;;;;14.23;8.35;;;;;;;15.42;82.28;100386.37;1833934;77;20890;-77
2021/06/12 00:25:13;;;;;;;10.88;7.08;;;;;;;15.41;82.21;100387.84;1835062;77;20918;-77
2021/06/12 00:27:40;;;;;;;12.63;8.38;;;;;;;15.40;81.94;100386.16;1834880;77;20871;-78
2021/06/12 00:30:08;;;;;;;16.32;8.85;;;;;;;15.37;81.92;100378.50;1834764;77;20851;-78
2021/06/12 00:32:35;;;;;;;12.58;7.60;;;;;;;15.36;82.05;100379.45;1834669;77;21146;-78
2021/06/12 00:35:03;;;;;;;11.08;8.18;;;;;;;15.33;82.20;100382.70;1834688;77;21336;-77
2021/06/12 00:37:31;;;;;;;11.25;8.43;;;;;;;15.32;82.31;100376.24;1834692;77;21055;-77
2021/06/12 00:39:58;;;;;;;15.83;9.60;;;;;;;15.30;82.35;100378.17;1834830;78;20887;-76
2021/06/12 00:42:25;;;;;;;20.23;9.88;;;;;;;15.28;82.41;100379.61;1834688;77;21364;-78
2021/06/12 00:44:52;;;;;;;11.70;8.95;;;;;;;15.27;82.46;100378.41;1834945;77;21486;-77
2021/06/12 00:47:18;;;;;;;15.32;9.23;;;;;;;15.23;82.39;100380.48;1834666;77;20931;-76
2021/06/12 00:49:46;;;;;;;13.13;8.30;;;;;;;15.21;82.19;100378.45;1834618;77;20894;-77
2021/06/12 00:52:13;;;;;;;15.53;8.48;;;;;;;15.18;82.13;100373.90;1835096;76;20958;-76
2021/06/12 00:54:39;;;;;;;17.02;9.73;;;;;;;15.16;81.93;100375.83;1835073;77;20930;-77
2021/06/12 00:57:06;;;;;;;19.12;10.35;;;;;;;15.14;82.15;100375.98;1834922;76;21116;-78
2021/06/12 00:59:33;;;;;;;21.68;10.70;;;;;;;15.12;82.20;100372.63;1835119;77;20863;-77
2021/06/12 01:02:00;;;;;;;17.27;11.63;;;;;;;15.10;82.31;100373.23;1834892;77;20950;-78
2021/06/12 01:04:27;;;;;;;18.12;10.95;;;;;;;15.09;82.35;100371.53;1835207;76;21365;-78
2021/06/12 01:06:54;;;;;;;18.23;11.95;;;;;;;15.07;82.39;100376.11;1835045;77;20867;-77
2021/06/12 01:09:22;;;;;;;16.48;11.80;;;;;;;15.06;82.61;100372.63;1805900;77;21821;-78
2021/06/12 01:12:22;;;;;;;21.33;10.95;;;;;;;15.05;82.85;100372.75;1832056;78;21020;-77
2021/06/12 01:14:56;;;;;;;24.10;12.30;;;;;;;15.03;82.94;100375.55;1832213;78;20875;-77
2021/06/12 01:17:27;;;;;;;;;;;;;;;15.01;82.93;100372.19;1834839;78;20899;-76
2021/06/12 01:20:15;;;;;;;22.60;11.95;;;;;;;14.99;82.98;100371.96;1832231;78;20109;-76
2021/06/12 01:22:51;;;;;;;18.85;12.30;;;;;;;14.92;82.77;100363.22;1831856;78;21983;-76
2021/06/12 01:25:33;;;;;;;18.82;10.55;;;;;;;14.92;82.77;100363.22;1831923;77;20890;-76
2021/06/12 01:28:26;;;;;;;15.83;10.15;;;;;;;14.87;82.30;100364.55;1831504;77;20993;-76
2021/06/12 01:30:54;;;;;;;19.32;10.90;;;;;;;14.88;82.38;100371.52;1832294;78;20911;-77
2021/06/12 01:33:21;;;;;;;26.75;10.68;;;;;;;14.88;82.38;100371.52;1831842;78;21406;-77
2021/06/12 01:35:54;;;;;;;14.05;10.60;;;;;;;14.88;82.71;100375.48;1832225;78;21091;-78
2021/06/12 01:38:29;;;;;;;23.52;12.58;;;;;;;14.86;82.94;100378.73;1803960;78;20970;-78
2021/06/12 01:41:00;;;;;;;23.12;12.73;;;;;;;14.79;83.13;100378.39;1832331;78;20847;-78
2021/06/12 01:43:27;;;;;;;16.67;11.53;;;;;;;14.76;83.48;100379.11;1831798;78;20884;-79
2021/06/12 01:45:53;;;;;;;16.80;10.58;;;;;;;14.78;83.53;100379.34;1831949;77;20867;-76
2021/06/12 01:48:20;;;;;;;19.42;12.37;;;;;;;14.80;83.26;100376.58;1831848;78;21093;-78
2021/06/12 01:50:47;;;;;;;22.95;12.43;;;;;;;14.82;83.22;100376.80;1804826;78;21415;-78
2021/06/12 01:53:19;;;;;;;16.12;11.48;;;;;;;14.84;83.18;100378.84;1832227;78;20856;-79
2021/06/12 01:55:48;;;;;;;22.77;11.93;;;;;;;14.85;83.04;100373.07;1832223;78;20938;-77
2021/06/12 01:58:21;;;;;;;19.45;10.88;;;;;;;14.86;82.87;100376.09;1833122;78;20812;-77
2021/06/12 02:00:49;;;;;;;24.45;12.23;;;;;;;14.85;82.82;100379.67;1834192;78;23710;-75
2021/06/12 02:03:16;;;;;;;17.20;11.45;;;;;;;14.84;82.37;100375.37;1833268;78;20832;-78
2021/06/12 02:05:43;;;;;;;19.92;11.88;;;;;;;14.84;82.37;100375.37;1832168;78;20946;-79
2021/06/12 02:08:11;;;;;;;20.10;11.90;;;;;;;14.83;82.30;100381.14;1831887;78;20926;-80
2021/06/12 02:10:39;;;;;;;24.07;13.00;;;;;;;14.83;82.30;100381.14;1855042;75;20927;-79
2021/06/12 02:13:08;;;;;;;18.20;11.50;;;;;;;14.84;82.65;100387.25;1860094;76;21543;-78
2021/06/12 02:15:35;;;;;;;23.00;11.12;;;;;;;14.85;82.71;100387.59;1860011;76;20879;-78
2021/06/12 02:18:08;;;;;;;20.17;12.13;;;;;;;14.82;82.62;100390.01;1860100;77;20895;-79
2021/06/12 02:20:36;;;;;;;20.97;12.03;;;;;;;14.81;82.54;100388.34;1860628;77;20923;-79
2021/06/12 02:23:05;;;;;;;24.12;11.83;;;;;;;14.80;82.41;100391.93;1860188;77;21017;-79
2021/06/12 02:25:32;;;;;;;25.12;13.53;;;;;;;14.82;82.27;100391.33;1860039;77;21447;-79
2021/06/12 02:28:03;;;;;;;20.68;12.63;;;;;;;14.86;82.28;100397.20;1860076;76;20962;-79
2021/06/12 02:30:32;;;;;;;20.45;13.40;;;;;;;14.88;82.34;100400.08;1860115;77;20883;-77
2021/06/12 02:33:01;;;;;;;20.60;14.68;;;;;;;14.91;82.77;100402.45;1859929;77;21041;-79
2021/06/12 02:35:28;;;;;;;22.75;14.18;;;;;;;14.93;82.80;100401.84;1860151;77;20903;-78
2021/06/12 02:37:55;;;;;;;24.47;13.80;;;;;;;14.97;82.91;100401.12;1860091;76;21936;-79
2021/06/12 02:40:22;;;;;;;19.50;14.50;;;;;;;15.00;82.92;100406.14;1859914;77;20954;-78
2021/06/12 02:42:49;;;;;;;23.05;14.30;;;;;;;15.03;82.88;100403.73;1860036;77;21447;-79
2021/06/12 02:45:17;;;;;;;28.92;16.40;;;;;;;15.04;82.98;100404.94;1859917;77;20899;-78
2021/06/12 02:47:54;;;;;;;24.43;14.90;;;;;;;15.09;83.10;100404.55;1860049;77;20891;-79
2021/06/12 02:50:24;;;;;;;22.40;16.17;;;;;;;15.12;83.01;100401.19;1860512;77;21444;-79
2021/06/12 02:52:52;;;;;;;20.17;14.78;;;;;;;15.18;82.97;100407.75;1829740;77;20970;-78
2021/06/12 02:55:20;;;;;;;20.45;14.65;;;;;;;15.23;83.03;100400.76;1860316;77;20997;-79
2021/06/12 02:57:49;;;;;;;19.55;14.78;;;;;;;15.27;82.84;100403.51;1859936;77;21417;-79
2021/06/12 03:00:18;;;;;;;23.90;13.70;;;;;;;15.30;82.66;100410.70;1860266;76;20883;-79
2021/06/12 03:02:46;;;;;;;22.62;15.23;;;;;;;15.33;82.47;100400.36;1860051;77;21139;-78
2021/06/12 03:05:17;;;;;;;22.80;17.23;;;;;;;15.37;82.42;100406.23;1859927;77;20891;-78
2021/06/12 03:07:45;;;;;;;31.93;20.77;;;;;;;15.42;82.50;100404.04;1859949;77;21350;-77
2021/06/12 03:10:14;;;;;;;36.40;22.80;;;;;;;15.48;82.87;100404.86;1854002;77;20874;-75
2021/06/12 03:12:41;;;;;;;29.18;20.08;;;;;;;15.55;83.04;100404.69;1849296;77;20910;-77
2021/06/12 03:15:10;;;;;;;27.82;20.02;;;;;;;15.68;83.29;100404.49;1849246;77;21299;-76
2021/06/12 03:17:37;;;;;;;30.62;20.23;;;;;;;15.68;83.29;100404.49;1823217;77;20900;-77
2021/06/12 03:20:07;;;;;;;26.75;20.17;;;;;;;15.73;83.33;100405.79;1849150;77;20873;-77
2021/06/12 03:22:37;;;;;;;25.95;19.45;;;;;;;15.80;83.28;100408.75;1849121;77;20917;-77
2021/06/12 03:25:06;;;;;;;23.00;16.77;;;;;;;15.83;83.26;100408.97;1849427;77;20889;-78
2021/06/12 03:27:33;;;;;;;30.17;20.55;;;;;;;15.85;83.39;100409.67;1849129;77;21137;-78
2021/06/12 03:30:00;;;;;;;22.05;16.97;;;;;;;15.88;83.45;100420.84;1823234;77;20956;-77
2021/06/12 03:32:27;;;;;;;40.95;20.65;;;;;;;15.93;83.50;100418.63;1849138;76;20870;-78
2021/06/12 03:34:54;;;;;;;31.25;19.73;;;;;;;16.00;83.48;100426.05;1849127;77;20873;-78
2021/06/12 03:37:21;;;;;;;29.60;20.00;;;;;;;16.18;83.55;100430.23;1849288;77;21457;-77
2021/06/12 03:39:48;;;;;;;27.48;19.98;;;;;;;16.18;83.55;100430.23;1849239;77;21538;-77
2021/06/12 03:42:15;;;;;;;26.30;20.10;;;;;;;16.24;83.33;100433.67;1823228;77;20850;-76
2021/06/12 03:44:44;;;;;;;33.58;22.42;;;;;;;16.32;83.29;100421.95;1823496;77;20952;-77
2021/06/12 03:47:12;;;;;;;28.57;21.30;;;;;;;16.42;83.44;100425.94;1849110;76;21082;-77
2021/06/12 03:49:39;;;;;;;28.83;18.23;;;;;;;16.51;83.45;100427.77;1849211;77;21382;-77
2021/06/12 03:52:06;;;;;;;21.02;16.00;;;;;;;16.59;83.31;100425.30;1849205;76;21043;-78
2021/06/12 03:54:34;;;;;;;20.72;17.55;;;;;;;16.67;83.22;100422.78;1849057;77;21059;-78
2021/06/12 03:57:01;;;;;;;27.42;18.90;;;;;;;16.81;83.06;100432.66;1803638;77;20917;-77
2021/06/12 03:59:28;;;;;;;22.77;16.17;;;;;;;16.97;83.38;100436.95;1849149;76;21383;-77
2021/06/12 04:01:55;;;;;;;15.78;13.03;;;;;;;17.44;83.18;100436.27;1849519;77;20995;-78
2021/06/12 04:04:24;;;;;;;13.28;11.15;;;;;;;17.44;83.18;100436.27;1849184;76;21094;-78
2021/06/12 04:06:51;;;;;;;11.85;10.23;;;;;;;17.78;82.33;100441.42;1849407;77;20925;-77
2021/06/12 04:09:18;;;;;;;11.63;8.38;;;;;;;18.20;81.52;100443.70;1848461;77;20972;-76
2021/06/12 04:11:45;;;;;;;9.88;8.65;;;;;;;18.74;80.34;100447.00;1834772;78;20891;-77
2021/06/12 04:14:12;;;;;;;8.80;7.78;;;;;;;19.31;78.83;100447.59;1834760;77;20895;-77
2021/06/12 04:16:39;;;;;;;9.28;7.55;;;;;;;19.91;76.91;100450.90;1834755;77;21771;-78
2021/06/12 04:19:06;;;;;;;10.72;8.03;;;;;;;20.35;75.10;100450.80;1834765;76;20873;-77
2021/06/12 04:21:33;;;;;;;7.42;6.83;;;;;;;20.83;73.51;100452.48;1834611;77;20848;-76
2021/06/12 04:24:00;;;;;;;8.35;6.85;;;;;;;21.25;71.69;100447.55;1834595;77;20927;-77
2021/06/12 04:26:27;;;;;;;10.13;7.12;;;;;;;21.69;69.92;100441.91;1834807;78;21360;-77
2021/06/12 04:28:54;;;;;;;8.48;7.15;;;;;;;22.12;68.41;100455.82;1834657;76;21531;-77
2021/06/12 04:31:21;;;;;;;9.05;6.72;;;;;;;22.47;67.04;100450.55;1834732;77;20965;-78
2021/06/12 04:33:49;;;;;;;10.93;6.65;;;;;;;22.86;65.69;100449.70;1834912;77;20879;-78
2021/06/12 04:36:17;;;;;;;10.53;7.35;;;;;;;23.13;64.34;100448.38;1834862;76;21000;-78
2021/06/12 04:38:46;;;;;;;10.80;6.60;;;;;;;23.37;63.55;100454.05;1834911;77;20957;-80
2021/06/12 04:41:13;;;;;;;12.00;6.70;;;;;;;23.56;62.62;100459.91;1834787;77;21813;-79
2021/06/12 04:43:40;;;;;;;6.12;5.42;;;;;;;23.79;61.99;100450.53;1834681;77;20977;-79
2021/06/12 04:46:07;;;;;;;8.10;5.47;;;;;;;23.97;60.82;100451.00;1834902;77;21424;-78
2021/06/12 04:48:34;;;;;;;4.65;4.08;;;;;;;24.10;60.07;100463.77;1834781;77;20903;-78
2021/06/12 04:51:01;;;;;;;5.17;4.67;;;;;;;24.27;59.14;100456.36;1834823;76;20969;-78
2021/06/12 04:53:30;;;;;;;6.72;4.80;;;;;;;24.43;58.61;100459.86;1835126;77;21102;-82
2021/06/12 04:55:59;;;;;;;11.00;5.70;;;;;;;24.57;58.12;100459.88;1835030;77;21385;-78
2021/06/12 04:58:25;;;;;;;10.15;6.25;;;;;;;24.67;57.45;100457.41;1835019;77;20898;-80
2021/06/12 05:00:53;;;;;;;7.75;5.90;;;;;;;24.74;56.78;100449.74;1834825;77;20871;-78
2021/06/12 05:03:20;;;;;;;9.38;5.85;;;;;;;24.91;56.59;100453.03;1835066;76;20969;-79
2021/06/12 05:05:48;;;;;;;8.28;6.35;;;;;;;25.13;55.85;100452.54;1834678;76;21949;-78
2021/06/12 05:08:16;;;;;;;7.15;6.45;;;;;;;25.33;55.23;100453.27;1834975;77;20871;-79
2021/06/12 05:10:44;;;;;;;9.18;6.00;;;;;;;25.51;54.63;100454.97;1834683;77;20867;-78
2021/06/12 05:13:11;;;;;;;5.97;4.85;;;;;;;25.62;53.76;100457.13;1834927;77;20950;-78
2021/06/12 05:15:40;;;;;;;6.25;4.55;;;;;;;25.73;53.17;100454.42;1834803;77;20895;-78
2021/06/12 05:18:08;;;;;;;8.48;4.85;;;;;;;25.88;52.91;100457.05;1834991;76;21093;-79
2021/06/12 05:20:35;;;;;;;6.65;4.55;;;;;;;26.04;53.09;100453.22;1834837;76;21297;-78
2021/06/12 05:23:04;;;;;;;6.97;3.25;;;;;;;26.18;52.28;100448.73;1835057;77;20894;-78
2021/06/12 05:25:31;;;;;;;3.05;2.75;;;;;;;26.24;51.47;100448.77;1834768;77;21356;-79
2021/06/12 05:27:58;;;;;;;7.40;3.55;;;;;;;26.30;50.79;100453.03;1835130;77;20843;-78
2021/06/12 05:30:25;;;;;;;5.40;3.05;;;;;;;26.27;50.46;100451.58;1834785;78;21940;-83
2021/06/12 05:32:53;;;;;;;2.87;2.67;;;;;;;26.29;50.64;100448.70;1834697;77;20905;-79
2021/06/12 05:35:20;;;;;;;4.42;3.72;;;;;;;26.29;50.73;100452.20;1834779;77;20926;-80
2021/06/12 05:37:47;;;;;;;3.80;3.22;;;;;;;26.30;50.22;100450.34;1834953;77;20918;-79
2021/06/12 05:40:14;;;;;;;4.10;3.22;;;;;;;26.38;50.39;100454.22;1834760;77;20951;-79
2021/06/12 05:42:41;;;;;;;3.25;3.00;;;;;;;26.60;50.25;100449.06;1835105;77;21048;-80
2021/06/12 05:45:09;;;;;;;5.37;3.60;;;;;;;26.79;49.59;100452.86;1834673;76;21421;-79
2021/06/12 05:47:36;;;;;;;2.95;2.75;;;;;;;27.02;48.81;100449.80;1835518;77;20874;-79
2021/06/12 05:50:07;;;;;;;4.45;3.90;;;;;;;27.23;48.43;100446.64;1837060;78;20903;-79
2021/06/12 05:52:34;;;;;;;4.97;2.95;;;;;;;27.51;48.05;100449.67;1836786;77;20883;-78
2021/06/12 05:55:01;;;;;;;4.08;3.47;;;;;;;27.70;47.53;100446.96;1835906;77;21077;-79
2021/06/12 05:57:28;;;;;;;6.92;3.17;;;;;;;27.87;46.96;100443.32;1834903;77;20925;-79
2021/06/12 05:59:55;;;;;;;3.22;2.90;;;;;;;27.94;46.94;100446.53;1835137;76;20871;-78
2021/06/12 06:02:21;;;;;;;3.10;2.80;;;;;;;27.90;46.48;100441.57;1834763;77;20919;-79
2021/06/12 06:04:49;;;;;;;3.80;2.92;;;;;;;27.78;46.97;100441.86;1835192;77;20872;-77
2021/06/12 06:07:17;;;;;;;4.45;2.85;;;;;;;27.65;47.47;100440.00;1806783;78;21292;-77
2021/06/12 06:09:46;;;;;;;3.50;2.85;;;;;;;27.56;47.86;100442.60;1834774;77;20895;-79
2021/06/12 06:12:13;;;;;;;2.92;2.70;;;;;;;27.42;47.48;100439.09;1834647;76;20871;-78
2021/06/12 06:14:40;;;;;;;6.03;3.10;;;;;;;27.20;47.97;100435.73;1835034;77;21059;-80
2021/06/12 06:17:06;;;;;;;7.20;2.42;;;;;;;27.07;47.99;100443.27;1834721;77;20919;-81
2021/06/12 06:19:33;;;;;;;5.40;2.98;;;;;;;26.93;47.72;100442.95;1835086;77;21085;-78
2021/06/12 06:22:00;;;;;;;5.08;2.22;;;;;;;26.85;48.80;100443.13;1834570;77;21036;-78
2021/06/12 06:24:27;;;;;;;2.45;2.20;;;;;;;26.82;48.84;100438.98;1834796;76;20847;-78
2021/06/12 06:26:55;;;;;;;2.72;2.50;;;;;;;26.79;49.43;100438.55;1834773;77;20922;-79
2021/06/12 06:29:22;;;;;;;4.72;2.72;;;;;;;26.76;49.13;100436.28;1834879;77;20879;-81
2021/06/12 06:31:49;;;;;;;3.02;2.50;;;;;;;26.75;49.23;100435.98;1834864;77;21106;-80
2021/06/12 06:34:16;;;;;;;2.92;2.62;;;;;;;26.79;49.27;100434.02;1834790;78;20895;-82
2021/06/12 06:36:43;;;;;;;5.15;2.00;;;;;;;26.81;49.46;100433.80;1834784;76;20891;-83
2021/06/12 06:39:10;;;;;;;3.77;2.40;;;;;;;26.82;49.27;100434.13;1834656;76;20977;-81
2021/06/12 06:41:41;;;;;;;2.75;2.27;;;;;;;26.89;49.44;100437.66;1834711;77;20894;-81
2021/06/12 06:44:09;;;;;;;3.00;2.45;;;;;;;26.95;49.27;100434.68;1834652;76;21123;-83
2021/06/12 06:46:36;;;;;;;2.75;2.05;;;;;;;27.00;49.11;100442.96;1834736;77;20859;-81
2021/06/12 06:49:04;;;;;;;3.95;2.70;;;;;;;27.07;48.74;100445.14;1807207;78;20962;-82
2021/06/12 06:51:31;;;;;;;2.25;2.08;;;;;;;27.17;48.62;100435.30;1834670;77;20966;-81
2021/06/12 06:53:58;;;;;;;2.52;1.98;;;;;;;27.21;48.67;100429.36;1834969;77;20863;-78
2021/06/12 06:56:26;;;;;;;2.25;2.02;;;;;;;27.44;48.90;100434.86;1835254;77;21091;-86
2021/06/12 06:58:53;;;;;;;3.80;2.55;;;;;;;27.79;48.15;100443.53;1834863;77;20894;-85
2021/06/12 07:01:21;;;;;;;2.17;1.98;;;;;;;28.25;47.69;100433.69;1835190;77;20950;-83
2021/06/12 07:03:48;;;;;;;2.70;2.50;;;;;;;28.80;47.03;100441.36;1834808;77;20938;-86
2021/06/12 07:06:15;;;;;;;4.05;2.27;;;;;;;29.26;44.90;100440.23;1835092;77;20906;-89
2021/06/12 07:08:42;;;;;;;3.58;2.98;;;;;;;29.64;44.12;100437.42;1835251;77;21773;-89
2021/06/12 07:11:13;;;;;;;5.00;2.67;;;;;;;30.05;43.27;100434.63;1840758;76;20999;-89
2021/06/12 07:13:41;;;;;;;5.00;2.98;;;;;;;30.43;42.28;100440.35;1849449;77;20924;-91
2021/06/12 07:16:08;;;;;;;6.83;3.52;;;;;;;30.74;42.61;100432.54;1849807;77;20886;-94
2021/06/12 07:18:36;;;;;;;3.95;3.58;;;;;;;31.04;41.88;100439.02;1849846;77;21489;-83
2021/06/12 07:21:04;;;;;;;4.35;3.20;;;;;;;31.27;41.36;100436.91;1849339;77;21088;-85
2021/06/12 07:23:31;;;;;;;5.47;3.00;;;;;;;31.46;40.76;100434.42;1849100;77;20910;-84
2021/06/12 07:25:58;;;;;;;4.30;3.47;;;;;;;31.72;39.95;100427.69;1848869;77;20972;-83
2021/06/12 07:28:25;;;;;;;2.83;2.58;;;;;;;32.04;39.62;100436.84;1848779;77;20872;-82
2021/06/12 07:30:52;;;;;;;5.35;3.15;;;;;;;32.24;39.15;100428.30;1849168;77;20925;-83
2021/06/12 07:33:19;;;;;;;2.87;2.55;;;;;;;32.34;38.56;100435.81;1849146;76;21118;-82
2021/06/12 07:35:47;;;;;;;3.92;3.10;;;;;;;32.29;38.23;100434.36;1849065;76;20965;-83
2021/06/12 07:38:16;;;;;;;3.27;2.87;;;;;;;32.37;38.56;100430.73;1849090;77;20980;-83
2021/06/12 07:40:43;;;;;;;3.27;2.75;;;;;;;32.47;38.33;100425.22;1849513;77;20964;-84
2021/06/12 07:43:10;;;;;;;4.10;2.30;;;;;;;32.51;37.74;100431.27;1849146;77;21441;-83
2021/06/12 07:45:37;;;;;;;5.15;3.15;;;;;;;32.57;37.48;100430.85;1849741;77;21087;-81
2021/06/12 07:48:05;;;;;;;4.33;2.80;;;;;;;32.41;37.77;100429.70;1849288;77;20948;-84
2021/06/12 07:50:32;;;;;;;5.15;2.95;;;;;;;32.40;37.99;100430.78;1849455;77;20984;-83
2021/06/12 07:52:59;;;;;;;3.35;3.05;;;;;;;32.51;38.14;100424.48;1849097;77;20893;-84
2021/06/12 07:55:27;;;;;;;3.83;3.08;;;;;;;32.75;37.65;100429.31;1849151;77;20953;-78
2021/06/12 07:57:54;;;;;;;4.92;4.53;;;;;;;32.66;37.56;100435.36;1849478;77;21142;-81
2021/06/12 08:00:22;;;;;;;7.87;5.85;;;;;;;32.35;37.55;100430.16;1848972;77;20980;-79
2021/06/12 08:02:51;;;;;;;7.62;5.78;;;;;;;31.86;38.24;100427.44;1849390;77;20933;-80
2021/06/12 08:05:18;;;;;;;7.12;6.30;;;;;;;31.22;38.92;100431.37;1848935;77;20999;-78
2021/06/12 08:07:45;;;;;;;11.90;9.75;;;;;;;30.57;40.31;100428.31;1849558;77;21367;-79
2021/06/12 08:10:14;;;;;;;11.75;8.28;;;;;;;29.99;41.80;100433.36;1849035;77;20873;-78
2021/06/12 08:12:43;;;;;;;11.10;10.08;;;;;;;29.49;42.20;100422.89;1834804;77;20903;-78
2021/06/12 08:15:13;;;;;;;13.70;12.25;;;;;;;29.49;42.87;100424.78;1834434;78;21419;-78
2021/06/12 08:17:41;;;;;;;13.00;11.30;;;;;;;29.65;42.62;100424.73;1834980;77;21400;-78
2021/06/12 08:20:09;;;;;;;9.80;8.65;;;;;;;29.99;41.57;100423.89;1834470;78;20890;-78
2021/06/12 08:22:36;;;;;;;10.13;8.13;;;;;;;30.36;40.83;100420.14;1834445;78;21389;-79
2021/06/12 08:26:14;;;;;;;12.05;7.40;;;;;;;30.93;40.61;100415.75;1798644;79;23257;-79
2021/06/12 08:28:40;;;;;;;9.90;8.88;;;;;;;31.24;39.43;100419.73;1758486;81;20985;-78
2021/06/12 08:31:08;;;;;;;14.75;13.35;;;;;;;31.30;39.60;100416.09;1757701;80;21741;-78
2021/06/12 08:33:35;;;;;;;16.15;13.78;;;;;;;31.25;39.10;100421.41;1758297;81;20967;-78
2021/06/12 08:36:02;;;;;;;15.60;13.90;;;;;;;31.17;39.84;100419.34;1758234;81;20915;-79
2021/06/12 08:38:30;;;;;;;16.90;15.08;;;;;;;31.12;39.59;100418.38;1758262;81;20944;-80
2021/06/12 08:40:57;;;;;;;18.27;16.23;;;;;;;30.95;39.55;100414.17;1758293;80;20967;-79
2021/06/12 08:43:27;;;;;;;22.87;18.00;;;;;;;30.74;39.90;100414.13;1758327;81;21373;-77
2021/06/12 08:45:55;;;;;;;21.00;17.90;;;;;;;30.45;39.80;100413.89;1758113;80;21015;-76
2021/06/12 08:48:23;;;;;;;21.00;18.60;;;;;;;30.17;39.97;100409.03;1758250;81;20904;-77
2021/06/12 08:50:51;;;;;;;17.65;11.97;;;;;;;29.93;40.71;100414.81;1758115;81;21338;-76
2021/06/12 08:53:18;;;;;;;13.22;11.00;;;;;;;29.93;41.45;100413.46;1757985;81;20877;-77
2021/06/12 08:55:46;;;;;;;10.60;8.55;;;;;;;30.05;41.36;100410.29;1758270;81;21517;-75
2021/06/12 08:58:14;;;;;;;11.88;8.10;;;;;;;30.32;41.47;100411.36;1758316;81;20889;-77
2021/06/12 09:00:42;;;;;;;7.78;6.42;;;;;;;30.68;40.93;100415.03;1758268;81;20881;-74
2021/06/12 09:03:27;;;;;;;5.40;4.80;;;;;;;30.95;40.04;100414.99;1758520;81;20975;-74
2021/06/12 09:05:58;;;;;;;7.55;4.45;;;;;;;31.19;39.20;100417.73;1758527;81;20976;-77
2021/06/12 09:08:30;;;;;;;3.42;3.12;;;;;;;31.52;38.39;100414.48;1758869;81;21140;-80
2021/06/12 09:11:17;;;;;;;4.05;3.75;;;;;;;31.81;36.96;100411.34;1758197;81;20959;-86
2021/06/12 09:13:53;;;;;;;6.28;3.80;;;;;;;32.11;36.45;100412.29;1764543;80;20912;-81
2021/06/12 09:16:34;;;;;;;4.03;2.80;;;;;;;32.39;36.46;100414.19;1758312;80;21066;-83
2021/06/12 09:19:17;;;;;;;5.35;3.00;;;;;;;32.54;35.67;100402.84;1758648;81;21350;-82
2021/06/12 09:22:01;;;;;;;3.33;2.72;;;;;;;32.72;35.08;100405.34;1758331;81;21379;-82
2021/06/12 09:24:49;;;;;;;4.97;4.37;;;;;;;32.94;34.93;100404.09;1758117;81;21110;-82
2021/06/12 09:27:16;;;;;;;7.80;5.35;;;;;;;33.02;35.20;100410.49;1758070;81;20884;-82
2021/06/12 09:29:51;;;;;;;7.95;5.55;;;;;;;32.87;34.77;100404.80;1758629;81;20970;-83
2021/06/12 09:32:22;;;;;;;6.37;4.78;;;;;;;32.45;35.66;100398.30;1758608;81;21335;-85
2021/06/12 09:34:57;;;;;;;9.33;5.12;;;;;;;31.98;36.57;100402.52;1758829;81;21158;-82
2021/06/12 09:37:28;;;;;;;5.37;4.45;;;;;;;31.54;37.34;100402.87;1756574;81;21027;-83
2021/06/12 09:40:15;;;;;;;5.80;4.60;;;;;;;31.25;37.69;100403.25;1757832;81;20881;-83
2021/06/12 09:42:54;;;;;;;6.75;5.53;;;;;;;31.12;37.74;100398.88;1757899;81;20999;-79
2021/06/12 09:45:25;;;;;;;11.85;9.68;;;;;;;31.18;37.84;100395.77;1757991;81;20894;-78
2021/06/12 09:48:15;;;;;;;12.05;8.93;;;;;;;31.41;37.62;100396.31;1758059;81;21137;-79
2021/06/12 09:50:43;;;;;;;15.13;9.50;;;;;;;31.67;36.84;100393.69;1757793;81;20872;-77
2021/06/12 09:53:13;;;;;;;11.83;9.08;;;;;;;31.92;36.65;100393.94;1757904;81;20995;-76
2021/06/12 09:55:40;;;;;;;11.28;9.63;;;;;;;31.81;36.53;100395.06;1757962;80;20960;-79
2021/06/12 09:58:07;;;;;;;16.93;9.90;;;;;;;31.59;36.42;100389.46;1758039;80;20995;-80
2021/06/12 10:00:39;;;;;;;11.35;9.33;;;;;;;31.57;36.47;100387.52;1758069;81;21767;-75
2021/06/12 10:03:28;;;;;;;11.93;10.88;;;;;;;31.65;37.32;100381.44;1721759;83;20963;-72
2021/06/12 10:06:21;;;;;;;17.60;12.07;;;;;;;31.65;37.07;100380.08;1703735;84;21486;-71
2021/06/12 10:08:51;;;;;;;14.13;12.63;;;;;;;31.75;36.19;100388.41;1674340;85;20934;-71
2021/06/12 10:11:24;;;;;;;16.35;11.57;;;;;;;31.60;36.06;100376.72;1689810;85;21004;-72
2021/06/12 10:13:52;;;;;;;15.45;11.15;;;;;;;31.58;35.89;100373.42;1660493;86;21839;-74
2021/06/12 10:16:21;;;;;;;13.43;9.68;;;;;;;31.54;36.99;100368.99;1737205;82;20995;-72
2021/06/12 10:18:53;;;;;;;10.28;9.13;;;;;;;31.25;37.31;100373.45;1737220;82;20949;-72
2021/06/12 10:21:20;;;;;;;10.30;9.15;;;;;;;30.90;37.73;100370.69;1737370;81;20952;-70
2021/06/12 10:23:48;;;;;;;12.35;9.40;;;;;;;30.51;38.28;100371.03;1737240;82;20909;-71
2021/06/12 10:26:18;;;;;;;11.60;10.10;;;;;;;30.36;39.19;100372.79;1731214;82;21161;-71
2021/06/12 10:28:46;;;;;;;14.95;12.65;;;;;;;30.33;39.44;100371.09;1729374;83;21403;-70
2021/06/12 10:31:23;;;;;;;24.27;11.38;;;;;;;30.13;39.58;100368.07;1729325;82;21509;-81
2021/06/12 10:33:52;;;;;;;18.73;13.78;;;;;;;30.21;39.49;100368.80;1729460;82;21011;-77
2021/06/12 10:36:29;;;;;;;20.32;11.70;;;;;;;30.14;39.83;100371.06;1729682;82;20972;-80
2021/06/12 10:38:57;;;;;;;53.90;20.77;;;;;;;30.05;39.69;100374.31;1729345;82;21887;-78
2021/06/12 10:41:29;;;;;;;28.60;11.10;;;;;;;29.95;40.01;100371.62;1729653;82;20958;-83
2021/06/12 10:44:02;;;;;;;12.73;8.68;;;;;;;29.80;40.37;100364.94;1750412;82;21014;-83
2021/06/12 10:46:31;;;;;;;12.00;8.37;;;;;;;29.87;39.86;100362.98;1753131;80;20960;-84
2021/06/12 10:49:00;;;;;;;18.07;9.08;;;;;;;30.05;39.83;100364.84;1752062;81;21456;-84
2021/06/12 10:51:34;;;;;;;8.88;6.67;;;;;;;30.30;40.04;100364.23;1716849;83;21827;-84
2021/06/12 10:54:20;;;;;;;;;;;;;;;30.61;38.85;100366.94;1755135;81;20857;-82
2021/06/12 10:57:01;;;;;;;8.15;6.58;;;;;;;30.88;38.18;100369.59;1752881;81;20093;-80
2021/06/12 10:59:48;;;;;;;11.03;6.60;;;;;;;31.12;38.24;100360.13;1752531;82;20932;-81
2021/06/12 11:02:24;;;;;;;10.28;5.85;;;;;;;31.36;37.30;100359.61;1752631;82;20874;-80
2021/06/12 11:04:55;;;;;;;;;;;;;;;31.36;37.29;100354.19;1755096;81;21145;-87
2021/06/12 11:07:32;;;;;;;8.90;6.42;;;;;;;31.52;37.80;100362.16;1752073;81;20069;-76
2021/06/12 11:10:22;;;;;;;4.80;4.33;;;;;;;31.49;38.48;100359.94;1752755;82;20940;-77
2021/06/12 11:12:53;;;;;;;3.98;2.72;;;;;;;31.45;37.24;100356.05;1716252;83;20983;-74
2021/06/12 11:15:29;;;;;;;1.70;1.40;;;;;;;31.53;37.88;100367.89;1716824;83;21404;-75
2021/06/12 11:18:18;;;;;;;3.67;2.45;;;;;;;31.53;37.15;100363.83;1716344;83;22005;-79
2021/06/12 11:20:48;;;;;;;2.90;1.80;;;;;;;31.38;37.25;100362.37;1716407;83;20904;-79
2021/06/12 11:23:19;;;;;;;2.12;2.02;;;;;;;31.22;37.96;100356.85;1716369;83;20895;-81
2021/06/12 11:25:55;;;;;;;2.80;2.37;;;;;;;30.96;37.86;100357.05;1713118;82;20971;-81
2021/06/12 11:28:30;;;;;;;3.92;2.52;;;;;;;30.67;38.13;100350.59;1734129;82;20885;-82
2021/06/12 11:31:25;;;;;;;5.83;2.62;;;;;;;30.34;38.96;100355.13;1744819;81;22006;-81